createdAt,value
2019-02-19T00:01:14.493Z,71.70
2019-02-19T00:03:46.255Z,74.10
2019-02-19T00:06:17.543Z,75.47
2019-02-19T00:08:50.027Z,77.57
2019-02-19T00:11:21.228Z,77.70
2019-02-19T00:13:52.406Z,74.93
2019-02-19T00:16:23.579Z,78.43
2019-02-19T00:18:54.804Z,82.17
2019-02-19T00:21:26.182Z,77.40
2019-02-19T00:23:57.893Z,77.77
2019-02-19T00:26:29.493Z,75.30
2019-02-19T00:29:00.642Z,83.80
2019-02-19T00:31:31.835Z,77.27
2019-02-19T00:34:03.088Z,74.93
2019-02-19T00:36:34.206Z,73.23
2019-02-19T00:39:06.786Z,77.13
2019-02-19T00:41:37.992Z,76.10
2019-02-19T00:44:09.154Z,76.60
2019-02-19T00:46:40.405Z,89.63
2019-02-19T00:49:11.594Z,76.97
2019-02-19T00:51:42.787Z,83.43
2019-02-19T00:54:13.876Z,84.60
2019-02-19T00:56:49.075Z,75.70
2019-02-19T00:59:28.056Z,79.67
2019-02-19T01:02:05.582Z,75.67
2019-02-19T01:04:36.964Z,78.90
2019-02-19T01:07:08.215Z,78.60
2019-02-19T01:09:39.262Z,76.80
2019-02-19T01:12:12.883Z,76.97
2019-02-19T01:14:44.082Z,78.93
2019-02-19T01:17:15.191Z,79.93
2019-02-19T01:19:46.476Z,81.57
2019-02-19T01:22:18.049Z,88.20
2019-02-19T01:24:49.122Z,89.37
2019-02-19T01:27:20.321Z,85.43
2019-02-19T01:33:34.029Z,74.10
2019-02-19T01:36:05.333Z,78.37
2019-02-19T01:38:36.427Z,93.00
2019-02-19T01:41:07.527Z,81.43
2019-02-19T01:43:38.696Z,81.00
2019-02-19T01:46:09.842Z,79.13
2019-02-19T01:48:41.107Z,80.77
2019-02-19T01:51:12.226Z,78.37
2019-02-19T01:53:43.353Z,75.50
2019-02-19T01:56:14.543Z,81.13
2019-02-19T01:58:45.738Z,81.27
2019-02-19T02:01:16.831Z,88.73
2019-02-19T02:03:55.545Z,86.47
2019-02-19T02:06:26.638Z,77.30
2019-02-19T02:08:57.737Z,78.50
2019-02-19T02:11:28.890Z,75.33
2019-02-19T02:14:00.031Z,89.40
2019-02-19T02:16:31.126Z,82.63
2019-02-19T02:19:02.302Z,78.50
2019-02-19T02:21:33.394Z,72.10
2019-02-19T02:24:04.514Z,76.57
2019-02-19T02:26:35.709Z,76.30
2019-02-19T02:29:06.813Z,76.77
2019-02-19T02:31:37.984Z,75.53
2019-02-19T02:34:09.142Z,74.30
2019-02-19T02:36:40.360Z,81.03
2019-02-19T02:39:11.544Z,79.07
2019-02-19T02:41:42.633Z,73.00
2019-02-19T02:44:13.743Z,73.53
2019-02-19T02:46:44.803Z,71.27
2019-02-19T02:49:16.043Z,84.20
2019-02-19T02:51:47.182Z,87.03
2019-02-19T02:54:18.396Z,73.40
2019-02-19T02:56:49.452Z,70.53
2019-02-19T02:59:20.611Z,80.43
2019-02-19T03:01:51.710Z,76.50
2019-02-19T03:04:22.811Z,74.93
2019-02-19T03:07:15.620Z,73.40
2019-02-19T03:09:46.731Z,77.73
2019-02-19T03:12:17.895Z,83.40
2019-02-19T03:14:48.982Z,77.57
2019-02-19T03:17:20.179Z,84.23
2019-02-19T03:19:51.273Z,76.23
2019-02-19T03:22:22.375Z,72.80
2019-02-19T03:24:53.506Z,73.57
2019-02-19T03:27:24.653Z,81.47
2019-02-19T03:29:55.742Z,76.33
2019-02-19T03:32:26.923Z,81.60
2019-02-19T03:34:58.060Z,75.97
2019-02-19T03:37:30.226Z,73.10
2019-02-19T03:40:01.329Z,70.37
2019-02-19T03:42:32.449Z,71.10
2019-02-19T03:45:03.592Z,74.00
2019-02-19T03:47:34.805Z,85.33
2019-02-19T03:50:06.235Z,74.07
2019-02-19T03:52:37.406Z,92.33
2019-02-19T03:55:08.727Z,86.27
2019-02-19T03:57:39.857Z,83.43
2019-02-19T04:00:10.960Z,73.40
2019-02-19T04:02:42.079Z,78.97
2019-02-19T04:05:13.274Z,75.30
2019-02-19T04:07:44.359Z,80.10
2019-02-19T04:10:15.490Z,74.37
2019-02-19T04:12:46.566Z,75.97
2019-02-19T04:15:17.667Z,77.50
2019-02-19T04:17:48.834Z,83.40
2019-02-19T04:20:19.897Z,83.67
2019-02-19T04:22:51.088Z,90.83
2019-02-19T04:25:22.288Z,104.10
2019-02-19T04:27:53.368Z,96.67
2019-02-19T04:30:24.479Z,94.30
2019-02-19T04:32:55.651Z,85.73
2019-02-19T04:35:26.805Z,77.90
2019-02-19T04:37:57.878Z,85.50
2019-02-19T04:40:29.008Z,90.50
2019-02-19T04:43:00.135Z,91.63
2019-02-19T04:45:31.263Z,82.00
2019-02-19T04:48:02.387Z,77.57
2019-02-19T04:50:33.524Z,81.83
2019-02-19T04:53:04.583Z,83.87
2019-02-19T04:55:35.689Z,79.07
2019-02-19T04:58:06.795Z,75.30
2019-02-19T05:00:37.919Z,79.80
2019-02-19T05:03:09.104Z,82.37
2019-02-19T05:05:40.292Z,83.93
2019-02-19T05:08:11.555Z,79.90
2019-02-19T05:10:42.674Z,76.47
2019-02-19T05:13:14.886Z,73.73
2019-02-19T05:15:46.082Z,75.67
2019-02-19T05:18:17.196Z,73.83
2019-02-19T05:20:48.248Z,77.77
2019-02-19T05:23:19.463Z,79.30
2019-02-19T05:25:50.648Z,82.83
2019-02-19T05:28:21.717Z,83.20
2019-02-19T05:30:52.844Z,89.40
2019-02-19T05:33:24.017Z,84.27
2019-02-19T05:35:55.200Z,78.13
2019-02-19T05:38:26.341Z,73.07
2019-02-19T05:40:57.496Z,84.60
2019-02-19T05:43:28.625Z,89.17
2019-02-19T05:45:59.805Z,76.30
2019-02-19T05:48:30.965Z,76.20
2019-02-19T05:51:02.105Z,77.97
2019-02-19T05:53:33.321Z,77.87
2019-02-19T05:56:04.434Z,78.00
2019-02-19T05:58:35.676Z,80.17
2019-02-19T06:01:06.798Z,76.97
2019-02-19T06:03:38.156Z,79.33
2019-02-19T06:06:09.732Z,73.33
2019-02-19T06:08:40.838Z,76.50
2019-02-19T06:11:11.965Z,78.67
2019-02-19T06:13:43.060Z,77.57
2019-02-19T06:16:14.192Z,74.63
2019-02-19T06:18:45.270Z,83.60
2019-02-19T06:21:16.472Z,80.87
2019-02-19T06:23:47.567Z,76.80
2019-02-19T06:26:18.730Z,80.10
2019-02-19T06:28:49.802Z,76.97
2019-02-19T06:31:20.899Z,74.97
2019-02-19T06:33:52.201Z,78.47
2019-02-19T06:36:23.298Z,79.83
2019-02-19T06:38:54.455Z,77.77
2019-02-19T06:41:25.622Z,84.30
2019-02-19T06:43:56.762Z,84.63
2019-02-19T06:46:27.930Z,78.37
2019-02-19T06:48:59.101Z,84.67
2019-02-19T06:51:30.188Z,82.00
2019-02-19T06:54:01.379Z,82.30
2019-02-19T06:56:32.501Z,84.67
2019-02-19T06:59:03.586Z,86.60
2019-02-19T07:01:52.219Z,88.10
2019-02-19T07:04:27.174Z,87.13
2019-02-19T07:06:58.353Z,93.33
2019-02-19T07:09:29.565Z,93.70
2019-02-19T07:12:00.695Z,91.93
2019-02-19T07:14:31.891Z,93.30
2019-02-19T07:17:03.087Z,96.90
2019-02-19T07:19:34.170Z,98.07
2019-02-19T07:22:05.361Z,100.03
2019-02-19T07:24:36.471Z,101.17
2019-02-19T07:27:07.559Z,95.13
2019-02-19T07:29:38.775Z,101.10
2019-02-19T07:32:09.909Z,100.97
2019-02-19T07:34:41.079Z,100.70
2019-02-19T07:37:12.166Z,108.23
2019-02-19T07:39:43.388Z,109.90
2019-02-19T07:42:14.472Z,112.00
2019-02-19T07:44:45.622Z,104.67
2019-02-19T07:47:24.457Z,112.57
2019-02-19T07:49:49.639Z,113.07
2019-02-19T07:52:20.819Z,118.07
2019-02-19T07:54:51.902Z,116.90
2019-02-19T07:57:23.097Z,114.33
2019-02-19T07:59:54.325Z,118.87
2019-02-19T08:02:25.481Z,119.77
2019-02-19T08:04:56.569Z,112.10
2019-02-19T08:07:27.682Z,108.47
2019-02-19T08:09:58.752Z,105.03
2019-02-19T08:12:29.853Z,103.97
2019-02-19T08:15:01.003Z,107.53
2019-02-19T08:17:33.595Z,106.73
2019-02-19T08:20:05.044Z,105.40
2019-02-19T08:22:36.257Z,98.70
2019-02-19T08:25:07.644Z,96.37
2019-02-19T08:27:38.863Z,98.00
2019-02-19T08:30:11.164Z,87.57
2019-02-19T08:32:42.475Z,75.87
2019-02-19T08:35:13.677Z,72.17
2019-02-19T08:37:44.874Z,68.00
2019-02-19T08:40:16.200Z,67.73
2019-02-19T08:42:47.485Z,67.63
2019-02-19T08:45:18.594Z,63.57
2019-02-19T08:47:49.725Z,66.83
2019-02-19T08:50:20.876Z,69.67
2019-02-19T08:52:53.069Z,66.77
2019-02-19T08:55:24.286Z,61.93
2019-02-19T08:57:55.343Z,55.87
2019-02-19T09:00:26.537Z,57.77
2019-02-19T09:02:57.652Z,60.00
2019-02-19T09:05:28.887Z,61.60
2019-02-19T09:07:59.988Z,58.03
2019-02-19T09:10:31.164Z,58.40
2019-02-19T09:13:02.351Z,59.53
2019-02-19T09:15:33.588Z,57.17
2019-02-19T09:18:04.735Z,56.43
2019-02-19T09:20:36.875Z,52.73
2019-02-19T09:23:08.113Z,54.03
2019-02-19T09:25:39.274Z,51.50
2019-02-19T09:28:10.445Z,53.30
2019-02-19T09:30:41.555Z,51.23
2019-02-19T09:33:12.867Z,46.60
2019-02-19T09:35:44.100Z,48.33
2019-02-19T09:38:15.216Z,46.77
2019-02-19T09:40:46.384Z,45.90
2019-02-19T09:43:17.581Z,48.07
2019-02-19T09:45:48.802Z,44.87
2019-02-19T09:48:19.926Z,45.23
2019-02-19T09:50:51.160Z,44.50
2019-02-19T09:53:22.345Z,43.93
2019-02-19T09:55:53.513Z,40.00
2019-02-19T09:58:24.694Z,41.93
2019-02-19T10:00:55.881Z,41.77
2019-02-19T10:03:27.192Z,39.87
2019-02-19T10:05:58.328Z,37.60
2019-02-19T10:08:29.534Z,36.97
2019-02-19T10:11:00.673Z,32.83
2019-02-19T10:13:31.852Z,30.37
2019-02-19T10:16:03.046Z,28.50
2019-02-19T10:18:34.285Z,29.00
2019-02-19T10:21:05.426Z,33.70
2019-02-19T10:23:36.637Z,22.67
2019-02-19T10:26:07.877Z,19.80
2019-02-19T10:28:39.141Z,20.97
2019-02-19T10:31:10.247Z,19.73
2019-02-19T10:33:41.404Z,20.07
2019-02-19T10:36:12.534Z,19.20
2019-02-19T10:38:43.675Z,19.27
2019-02-19T10:41:14.791Z,19.47
2019-02-19T10:43:45.937Z,18.03
2019-02-19T10:46:17.141Z,17.03
2019-02-19T10:48:48.303Z,17.40
2019-02-19T10:51:19.448Z,18.00
2019-02-19T10:53:50.595Z,17.60
2019-02-19T10:56:21.956Z,16.00
2019-02-19T10:58:53.086Z,15.93
2019-02-19T11:01:24.318Z,15.00
2019-02-19T11:03:55.433Z,14.40
2019-02-19T11:06:26.639Z,15.50
2019-02-19T11:08:58.800Z,14.87
2019-02-19T11:11:30.007Z,15.63
2019-02-19T11:14:01.123Z,15.63
2019-02-19T11:16:32.316Z,16.20
2019-02-19T11:19:03.438Z,15.00
2019-02-19T11:21:34.615Z,16.63
2019-02-19T11:24:05.762Z,13.97
2019-02-19T11:26:36.967Z,15.67
2019-02-19T11:29:08.178Z,15.13
2019-02-19T11:31:39.288Z,15.67
2019-02-19T11:34:10.493Z,16.27
2019-02-19T11:36:41.610Z,16.13
2019-02-19T11:39:13.971Z,14.63
2019-02-19T11:41:45.164Z,14.73
2019-02-19T11:44:16.386Z,13.90
2019-02-19T11:46:47.525Z,13.47
2019-02-19T11:49:18.710Z,14.03
2019-02-19T11:51:49.840Z,14.57
2019-02-19T11:54:21.931Z,13.70
2019-02-19T11:56:53.139Z,12.43
2019-02-19T11:59:24.516Z,12.40
2019-02-19T12:01:55.755Z,12.00
2019-02-19T12:04:27.041Z,12.87
2019-02-19T12:06:58.229Z,12.03
2019-02-19T12:09:29.479Z,12.10
2019-02-19T12:12:00.634Z,10.27
2019-02-19T12:14:31.840Z,10.40
2019-02-19T12:17:03.036Z,10.57
2019-02-19T12:19:34.262Z,9.30
2019-02-19T12:22:05.450Z,11.00
2019-02-19T12:24:36.628Z,10.80
2019-02-19T12:27:08.963Z,11.50
2019-02-19T12:29:40.270Z,12.10
2019-02-19T12:32:11.501Z,11.30
2019-02-19T12:34:42.908Z,11.47
2019-02-19T12:37:14.122Z,12.80
2019-02-19T12:39:45.504Z,10.90
2019-02-19T12:42:16.804Z,11.77
2019-02-19T12:44:47.922Z,12.03
2019-02-19T12:47:19.175Z,11.37
2019-02-19T12:49:50.418Z,12.70
2019-02-19T12:52:22.009Z,11.70
2019-02-19T12:54:53.325Z,12.13
2019-02-19T12:57:24.737Z,12.20
2019-02-19T12:59:56.784Z,12.47
2019-02-19T13:02:28.090Z,12.13
2019-02-19T13:04:59.366Z,12.47
2019-02-19T13:07:30.627Z,12.43
2019-02-19T13:10:01.763Z,12.43
2019-02-19T13:12:33.607Z,12.70
2019-02-19T13:15:05.071Z,13.03
2019-02-19T13:17:36.412Z,13.00
2019-02-19T13:20:09.066Z,12.43
2019-02-19T13:22:40.325Z,12.87
2019-02-19T13:25:11.881Z,13.13
2019-02-19T13:27:43.040Z,14.07
2019-02-19T13:30:15.429Z,13.10
2019-02-19T13:32:46.607Z,12.47
2019-02-19T13:35:17.889Z,12.77
2019-02-19T13:37:49.155Z,13.60
2019-02-19T13:40:20.434Z,12.80
2019-02-19T13:42:51.793Z,12.23
2019-02-19T13:45:22.921Z,12.83
2019-02-19T13:47:54.055Z,13.67
2019-02-19T13:50:25.351Z,13.47
2019-02-19T13:53:13.999Z,14.00
2019-02-19T13:55:50.882Z,14.07
2019-02-19T13:58:22.164Z,13.57
2019-02-19T14:00:53.519Z,15.30
2019-02-19T14:03:24.721Z,14.97
2019-02-19T14:05:55.900Z,15.90
2019-02-19T14:08:27.345Z,13.10
2019-02-19T14:10:58.697Z,14.27
2019-02-19T14:13:29.925Z,13.17
2019-02-19T14:16:18.546Z,13.87
2019-02-19T14:19:20.946Z,15.43
2019-02-19T14:22:02.646Z,15.10
2019-02-19T14:24:52.681Z,15.90
2019-02-19T14:27:42.690Z,16.00
2019-02-19T14:30:38.788Z,16.47
2019-02-19T14:33:31.437Z,16.63
2019-02-19T14:36:11.445Z,16.90
2019-02-19T14:39:07.282Z,17.73
2019-02-19T14:41:56.125Z,16.80
2019-02-19T14:44:44.809Z,17.87
2019-02-19T14:47:34.043Z,18.20
2019-02-19T14:50:36.763Z,17.70
2019-02-19T14:53:32.540Z,16.80
2019-02-19T14:56:25.695Z,17.40
2019-02-19T14:59:11.016Z,17.33
2019-02-19T15:02:03.763Z,16.93
2019-02-19T15:04:52.344Z,18.40
2019-02-19T15:07:34.584Z,18.37
2019-02-19T15:10:20.507Z,17.57
2019-02-19T15:13:05.496Z,18.40
2019-02-19T15:16:01.352Z,17.67
2019-02-19T15:19:04.612Z,17.87
2019-02-19T15:21:45.450Z,18.40
2019-02-19T15:24:24.272Z,17.50
2019-02-19T15:27:20.152Z,17.80
2019-02-19T15:30:10.744Z,18.03
2019-02-19T15:33:00.731Z,18.97
2019-02-19T15:35:59.688Z,18.57
2019-02-19T15:38:52.800Z,19.03
2019-02-19T15:41:52.890Z,19.27
2019-02-19T15:44:52.008Z,19.33
2019-02-19T15:48:00.650Z,18.63
2019-02-19T15:50:50.309Z,18.37
2019-02-19T15:53:43.193Z,18.40
2019-02-19T15:56:40.232Z,17.37
2019-02-19T15:59:33.125Z,17.10
2019-02-19T16:02:15.626Z,16.27
2019-02-19T16:04:55.828Z,16.33
2019-02-19T16:07:45.489Z,17.40
2019-02-19T16:10:31.315Z,17.03
2019-02-19T16:13:23.196Z,15.40
2019-02-19T16:16:25.562Z,15.03
2019-02-19T16:19:07.866Z,16.10
2019-02-19T16:21:52.803Z,15.03
2019-02-19T16:24:54.984Z,15.10
2019-02-19T16:27:35.447Z,14.57
2019-02-19T16:30:44.891Z,16.07
2019-02-19T16:33:37.811Z,16.40
2019-02-19T16:36:27.832Z,17.30
2019-02-19T16:39:19.941Z,16.13
2019-02-19T16:42:09.998Z,18.13
2019-02-19T16:45:06.312Z,16.70
2019-02-19T16:48:05.489Z,18.33
2019-02-19T16:50:52.467Z,18.17
2019-02-19T16:53:42.522Z,19.00
2019-02-19T16:56:23.010Z,18.73
2019-02-19T16:59:11.959Z,18.93
2019-02-19T17:02:06.739Z,18.60
2019-02-19T17:05:14.799Z,19.27
2019-02-19T17:07:58.786Z,14.80
2019-02-19T17:10:48.893Z,14.03
2019-02-19T17:13:29.494Z,13.73
2019-02-19T17:16:18.345Z,13.40
2019-02-19T17:19:20.758Z,12.03
2019-02-19T17:22:14.922Z,11.50
2019-02-19T17:25:05.302Z,12.17
2019-02-19T17:27:46.769Z,12.63
2019-02-19T17:30:37.029Z,12.80
2019-02-19T17:33:26.138Z,13.13
2019-02-19T17:36:19.100Z,12.47
2019-02-19T17:39:08.770Z,12.80
2019-02-19T17:41:48.041Z,13.90
2019-02-19T17:44:27.790Z,14.07
2019-02-19T17:47:18.480Z,16.40
2019-02-19T17:50:00.392Z,16.33
2019-02-19T17:52:49.903Z,13.70
2019-02-19T17:55:38.670Z,13.70
2019-02-19T17:58:32.249Z,15.43
2019-02-19T18:01:14.754Z,15.90
2019-02-19T18:04:03.419Z,15.07
2019-02-19T18:06:46.297Z,15.07
2019-02-19T18:09:36.510Z,16.57
2019-02-19T18:12:33.136Z,15.23
2019-02-19T18:15:23.443Z,14.00
2019-02-19T18:18:14.627Z,14.93
2019-02-19T18:20:47.842Z,13.63
2019-02-19T18:23:21.009Z,13.10
2019-02-19T18:25:55.071Z,14.53
2019-02-19T18:28:28.923Z,14.67
2019-02-19T18:31:01.623Z,14.23
2019-02-19T18:33:34.214Z,14.87
2019-02-19T18:36:05.845Z,14.33
2019-02-19T18:38:37.269Z,14.07
2019-02-19T18:41:09.127Z,14.67
2019-02-19T18:43:40.510Z,14.00
2019-02-19T18:46:12.008Z,14.43
2019-02-19T18:48:43.438Z,14.40
2019-02-19T18:51:14.988Z,12.40
2019-02-19T18:53:46.252Z,12.47
2019-02-19T18:56:17.545Z,12.10
2019-02-19T18:58:48.925Z,11.93
2019-02-19T19:01:20.784Z,10.33
2019-02-19T19:03:54.734Z,10.20
2019-02-19T19:06:27.891Z,9.90
2019-02-19T19:08:59.666Z,8.87
2019-02-19T19:11:31.537Z,8.37
2019-02-19T19:14:03.042Z,8.80
2019-02-19T19:16:34.883Z,8.07
2019-02-19T19:19:06.379Z,8.20
2019-02-19T19:21:37.886Z,6.93
2019-02-19T19:24:09.407Z,7.23
2019-02-19T19:26:40.946Z,7.53
2019-02-19T19:29:12.443Z,7.80
2019-02-19T19:31:44.081Z,7.97
2019-02-19T19:34:15.735Z,7.53
2019-02-19T19:36:47.947Z,9.20
2019-02-19T19:39:20.499Z,8.90
2019-02-19T19:41:53.192Z,8.50
2019-02-19T19:44:25.158Z,8.70
2019-02-19T19:46:56.833Z,8.10
2019-02-19T19:49:28.367Z,9.10
2019-02-19T19:51:59.745Z,9.87
2019-02-19T19:54:31.145Z,9.53
2019-02-19T19:57:04.306Z,10.33
2019-02-19T19:59:35.642Z,9.83
2019-02-19T20:02:07.196Z,10.20
2019-02-19T20:04:38.920Z,10.80
2019-02-19T20:07:10.243Z,11.33
2019-02-19T20:09:41.753Z,11.73
2019-02-19T20:12:14.591Z,12.70
2019-02-19T20:14:46.110Z,13.60
2019-02-19T20:17:17.500Z,13.70
2019-02-19T20:19:52.309Z,14.50
2019-02-19T20:22:25.042Z,15.13
2019-02-19T20:24:58.291Z,15.10
2019-02-19T20:27:31.104Z,15.83
2019-02-19T20:30:03.002Z,15.07
2019-02-19T20:32:35.890Z,14.47
2019-02-19T20:35:08.216Z,15.20
2019-02-19T20:37:39.679Z,16.33
2019-02-19T20:40:11.434Z,16.10
2019-02-19T20:42:42.702Z,17.33
2019-02-19T20:45:14.152Z,15.30
2019-02-19T20:47:45.419Z,16.00
2019-02-19T20:50:16.950Z,15.67
2019-02-19T20:52:48.230Z,14.90
2019-02-19T20:55:19.706Z,16.33
2019-02-19T20:57:51.957Z,15.47
2019-02-19T21:00:23.396Z,16.30
2019-02-19T21:02:54.699Z,16.07
2019-02-19T21:05:26.053Z,18.00
2019-02-19T21:07:57.540Z,17.57
2019-02-19T21:10:29.319Z,17.07
2019-02-19T21:13:00.900Z,17.97
2019-02-19T21:15:32.410Z,18.50
2019-02-19T21:18:03.698Z,16.93
2019-02-19T21:20:35.109Z,18.03
2019-02-19T21:23:06.687Z,18.10
2019-02-19T21:25:38.186Z,17.90
2019-02-19T21:28:10.086Z,19.37
2019-02-19T21:30:41.607Z,19.40
2019-02-19T21:33:12.861Z,18.67
2019-02-19T21:35:57.928Z,19.53
2019-02-19T21:38:29.307Z,18.23
2019-02-19T21:41:00.596Z,19.23
2019-02-19T21:43:31.912Z,20.57
2019-02-19T21:46:03.260Z,19.30
2019-02-19T21:48:35.791Z,19.97
2019-02-19T21:51:07.098Z,19.83
2019-02-19T21:53:38.430Z,20.37
2019-02-19T21:56:09.669Z,19.33
2019-02-19T21:58:40.884Z,20.70
2019-02-19T22:01:12.235Z,20.67
2019-02-19T22:03:43.551Z,21.13
2019-02-19T22:06:14.998Z,21.43
2019-02-19T22:08:46.444Z,19.97
2019-02-19T22:11:17.729Z,19.37
2019-02-19T22:13:49.968Z,19.60
2019-02-19T22:16:21.165Z,18.77
2019-02-19T22:18:52.466Z,19.77
2019-02-19T22:21:44.184Z,18.60
2019-02-19T22:24:16.981Z,18.90
2019-02-19T22:26:48.302Z,21.20
2019-02-19T22:29:19.605Z,21.27
2019-02-19T22:31:52.759Z,22.13
2019-02-19T22:34:24.069Z,22.60
2019-02-19T22:36:55.245Z,24.47
2019-02-19T22:39:26.482Z,24.33
2019-02-19T22:41:57.715Z,24.73
2019-02-19T22:44:29.860Z,24.53
2019-02-19T22:47:00.994Z,22.33
2019-02-19T22:49:32.153Z,21.67
2019-02-19T22:52:11.943Z,21.67
2019-02-19T22:54:46.886Z,24.40
2019-02-19T22:57:18.252Z,21.73
2019-02-19T22:59:49.465Z,22.57
2019-02-19T23:02:26.251Z,21.17
2019-02-19T23:04:57.540Z,21.33
2019-02-19T23:07:28.796Z,20.67
2019-02-19T23:10:00.222Z,21.40
2019-02-19T23:25:02.357Z,19.83
2019-02-19T23:27:35.019Z,20.30
2019-02-19T23:30:07.198Z,19.33
2019-02-19T23:32:39.365Z,19.73
2019-02-19T23:35:26.180Z,19.03
2019-02-19T23:37:57.262Z,19.20
2019-02-19T23:40:28.482Z,19.93
2019-02-19T23:42:59.615Z,17.40
2019-02-19T23:45:30.845Z,17.47
2019-02-19T23:48:01.976Z,17.77
2019-02-19T23:50:33.170Z,18.30
2019-02-19T23:53:04.262Z,16.63
2019-02-19T23:55:35.506Z,18.27
2019-02-19T23:58:06.659Z,17.47
